Station History

Weather Underground - logo

Station Historical Data
Daily Summary for January 25, 2018 Units:  Metric    English   Both
« Previous Day
Next Day »
Daily Weekly Monthly Yearly Custom
  High: Low: Average:
Temperature: -17.8 °C 3.1 °C 9.2 °C
Dew Point: -17.8 °C 1.6 °C 5.4 °C
Humidity: Humidity % 47 % 78 %
Wind Speed: 0 km/h 0 km/h 2.3 km/h
Wind Gust: 0 km/h - -
Wind:- - WSW
Pressure: 0 hPa 1016.5 hPa -
Precipitation: 6.1 mm    
Historical Graphs
 
 
Tabular Data for January 25, 2018
Time Temperature Dew Point Pressure Wind Wind Speed Wind Gust Humidity Rainfall Rate (Hourly)
-17.8 °C -17.8 °C 0 hPa Calm     Humidity % 0 mm
00:02 10.7 °C 7.6 °C 1017.2 hPa NW 7.4 km/h 7.4 km/h 81 % 0 mm
00:07 10.8 °C 7.4 °C 1017.2 hPa NW 7.4 km/h 7.4 km/h 80 % 0 mm
00:12 10.8 °C 7.4 °C 1017.2 hPa NW 5.6 km/h 5.6 km/h 80 % 0 mm
00:17 10.8 °C 7.4 °C 1017.2 hPa NW 5.6 km/h 5.6 km/h 80 % 0 mm
00:22 10.9 °C 7.4 °C 1017.2 hPa NW 7.4 km/h 7.4 km/h 79 % 0 mm
00:27 11.1 °C 7.4 °C 1017.2 hPa NW 5.6 km/h 5.6 km/h 78 % 0 mm
00:32 11.1 °C 7.4 °C 1017.2 hPa NW 1.9 km/h 1.9 km/h 78 % 0 mm
00:37 11 °C 7.3 °C 1017.2 hPa WNW 1.9 km/h   78 % 0 mm
00:42 10.9 °C 7.3 °C 1016.8 hPa NNW 1.9 km/h   78 % 0 mm
00:47 10.8 °C 7.3 °C 1017.2 hPa Calm     79 % 0 mm
00:52 10.7 °C 7.2 °C 1017.2 hPa Calm     79 % 0 mm
00:57 10.5 °C 7.2 °C 1017.2 hPa Calm     80 % 0 mm
01:02 10.4 °C 7.1 °C 1016.8 hPa Calm     80 % 0 mm
01:07 10.2 °C 7.1 °C 1016.8 hPa Calm     81 % 0 mm
01:12 10.1 °C 6.9 °C 1016.8 hPa Calm     81 % 0 mm
01:17 9.9 °C 6.9 °C 1016.8 hPa Calm     82 % 0 mm
01:22 9.8 °C 7 °C 1016.8 hPa Calm     83 % 0 mm
01:28 9.6 °C 6.9 °C 1016.8 hPa Calm     83 % 0 mm
01:33 9.5 °C 6.9 °C 1016.8 hPa Calm     84 % 0 mm
01:38 9.4 °C 7.1 °C 1016.5 hPa Calm     85 % 0 mm
01:43 9.4 °C 7 °C 1016.5 hPa Calm     85 % 0 mm
01:48 9.3 °C 6.9 °C 1016.5 hPa Calm     85 % 0 mm
01:53 9.1 °C 6.9 °C 1016.5 hPa Calm     86 % 0 mm
01:58 9 °C 6.8 °C 1016.5 hPa Calm     86 % 0 mm
02:03 8.8 °C 6.8 °C 1016.5 hPa Calm     87 % 0 mm
02:08 8.8 °C 6.9 °C 1016.5 hPa Calm     88 % 0 mm
02:13 8.8 °C 6.9 °C 1016.8 hPa Calm     88 % 0 mm
02:18 8.8 °C 6.9 °C 1016.8 hPa Calm     88 % 0 mm
02:23 8.8 °C 6.9 °C 1016.8 hPa Calm     88 % 0 mm
02:28 8.8 °C 6.9 °C 1016.8 hPa WNW 1.9 km/h 1.9 km/h 88 % 0 mm
02:33 8.8 °C 7.1 °C 1016.8 hPa NNW 1.9 km/h   89 % 0 mm
02:38 8.8 °C 7.1 °C 1016.8 hPa SSE 1.6 km/h 1.6 km/h 89 % 0 mm
02:43 8.7 °C 7 °C 1017.2 hPa SSE 1.6 km/h 1.6 km/h 89 % 0 mm
02:48 8.7 °C 6.9 °C 1017.2 hPa ESE 1.9 km/h   89 % 0 mm
02:53 8.6 °C 6.9 °C 1017.2 hPa ESE 1.9 km/h 1.9 km/h 89 % 0 mm
02:58 8.6 °C 6.8 °C 1016.8 hPa East 3.2 km/h 3.2 km/h 89 % 0 mm
03:04 8.5 °C 6.8 °C 1017.2 hPa East 1.6 km/h   89 % 0 mm
03:09 8.5 °C 6.8 °C 1017.2 hPa Calm     89 % 0 mm
03:14 8.4 °C 6.9 °C 1016.8 hPa East 1.9 km/h 1.9 km/h 90 % 0 mm
03:19 8.4 °C 6.9 °C 1017.2 hPa Calm     90 % 0 mm
03:24 8.4 °C 6.8 °C 1016.8 hPa East 1.9 km/h 1.9 km/h 90 % 0 mm
03:29 8.4 °C 6.8 °C 1016.8 hPa East 1.9 km/h   90 % 0 mm
03:34 8.3 °C 6.8 °C 1017.2 hPa East 3.7 km/h 3.7 km/h 90 % 0 mm
03:39 8.2 °C 6.7 °C 1016.8 hPa Calm     90 % 0 mm
03:44 8.2 °C 6.6 °C 1016.8 hPa Calm     90 % 0 mm
03:49 8.1 °C 6.6 °C 1017.2 hPa East 1.9 km/h 1.9 km/h 90 % 0 mm
03:54 8.1 °C 6.5 °C 1017.5 hPa Calm     90 % 0 mm
03:59 8 °C 6.6 °C 1017.5 hPa Calm     91 % 0 mm
04:04 8 °C 6.6 °C 1017.5 hPa Calm     91 % 0 mm
04:09 8 °C 6.6 °C 1017.5 hPa Calm     91 % 0 mm
04:14 7.9 °C 6.6 °C 1017.2 hPa East 1.9 km/h   91 % 0 mm
04:19 7.9 °C 6.7 °C 1017.2 hPa Calm     92 % 0 mm
04:24 7.9 °C 6.7 °C 1017.5 hPa East 1.9 km/h   92 % 0 mm
04:29 7.8 °C 6.6 °C 1017.5 hPa Calm     92 % 0 mm
04:34 7.8 °C 6.6 °C 1017.5 hPa East 1.9 km/h 1.9 km/h 92 % 0 mm
04:39 7.8 °C 6.6 °C 1017.5 hPa East 1.9 km/h 1.9 km/h 92 % 0 mm
04:44 7.8 °C 6.6 °C 1017.5 hPa East 3.7 km/h 3.7 km/h 92 % 0 mm
04:49 7.8 °C 6.6 °C 1017.5 hPa East 1.9 km/h 1.9 km/h 92 % 0 mm
04:54 7.7 °C 6.7 °C 1017.5 hPa East 1.9 km/h 1.9 km/h 93 % 0 mm
04:59 7.7 °C 6.7 °C 1017.8 hPa East 4.8 km/h 4.8 km/h 93 % 0 mm
05:04 7.7 °C 6.7 °C 1017.8 hPa East 1.9 km/h 1.9 km/h 93 % 0 mm
05:09 7.7 °C 6.6 °C 1017.8 hPa Calm     93 % 0 mm
05:14 7.6 °C 6.6 °C 1017.8 hPa East 1.9 km/h 1.9 km/h 93 % 0 mm
05:20 7.7 °C 6.6 °C 1017.8 hPa Calm     93 % 0 mm
05:25 7.7 °C 6.7 °C 1017.8 hPa Calm     93 % 0 mm
05:30 7.7 °C 6.7 °C 1018.2 hPa East 1.9 km/h 1.9 km/h 93 % 0.25 mm
05:35 7.8 °C 6.9 °C 1018.2 hPa Calm     94 % 0.25 mm
05:40 7.8 °C 6.9 °C 1018.2 hPa Calm     94 % 0.25 mm
05:45 7.8 °C 6.9 °C 1018.2 hPa East 1.9 km/h 1.9 km/h 94 % 0.51 mm
05:50 7.8 °C 6.9 °C 1018.5 hPa East 3.7 km/h 3.7 km/h 94 % 0.51 mm
05:55 7.8 °C 6.9 °C 1018.5 hPa Calm     94 % 0.76 mm
06:00 7.8 °C 6.9 °C 1018.5 hPa Calm     94 % 0.76 mm
06:05 7.9 °C 7 °C 1018.8 hPa Calm     94 % 1.02 mm
06:10 7.9 °C 7.1 °C 1018.8 hPa Calm     94 % 1.52 mm
06:15 7.9 °C 7.1 °C 1018.8 hPa Calm     94 % 1.78 mm
06:20 7.9 °C 7.1 °C 1018.8 hPa Calm     94 % 2.03 mm
06:25 8 °C 7.1 °C 1018.8 hPa Calm     94 % 2.29 mm
06:30 8 °C 7.2 °C 1018.8 hPa East 1.9 km/h   95 % 2.29 mm
06:35 8.1 °C 7.3 °C 1018.8 hPa Calm   0.2 km/h 95 % 2.54 mm
06:40 8.1 °C 7.3 °C 1019.2 hPa Calm     95 % 2.54 mm
06:45 8.1 °C 7.3 °C 1019.2 hPa Calm     95 % 2.54 mm
06:50 8.1 °C 7.3 °C 1019.2 hPa Calm     95 % 2.54 mm
06:55 8.2 °C 7.4 °C 1019.2 hPa Calm     95 % 2.54 mm
07:00 8.2 °C 7.4 °C 1019.2 hPa Calm     95 % 2.54 mm
07:05 8.3 °C 7.5 °C 1019.2 hPa NW 3.7 km/h 3.7 km/h 95 % 2.79 mm
07:10 8.4 °C 7.7 °C 1019.2 hPa NNW 1.9 km/h 1.9 km/h 95 % 2.54 mm
07:15 8.6 °C 7.8 °C 1019.2 hPa Calm     95 % 2.29 mm
07:20 8.6 °C 7.8 °C 1019.2 hPa NW 3.2 km/h 3.2 km/h 95 % 2.29 mm
07:25 8.6 °C 7.8 °C 1019.2 hPa WNW 9.3 km/h 9.3 km/h 95 % 2.03 mm
07:30 8.6 °C 7.7 °C 1019.2 hPa NW 5.6 km/h 5.6 km/h 94 % 1.78 mm
07:36 8.6 °C 7.7 °C 1019.2 hPa NW 5.6 km/h 5.6 km/h 94 % 1.52 mm
07:41 8.6 °C 7.7 °C 1019.5 hPa NW 3.7 km/h 3.7 km/h 94 % 1.52 mm
07:46 8.6 °C 7.7 °C 1019.5 hPa NW 1.9 km/h 1.9 km/h 94 % 1.27 mm
07:51 8.6 °C 7.7 °C 1019.5 hPa WNW 3.7 km/h 3.7 km/h 94 % 1.27 mm
07:56 8.7 °C 7.6 °C 1019.5 hPa North 3.7 km/h 3.7 km/h 93 % 1.02 mm
08:01 8.7 °C 7.6 °C 1019.9 hPa NW 3.7 km/h 3.7 km/h 93 % 0.76 mm
08:06 8.7 °C 7.6 °C 1019.9 hPa NW 5.6 km/h 5.6 km/h 93 % 0.51 mm
08:11 8.6 °C 7.6 °C 1019.9 hPa NW 1.9 km/h 1.9 km/h 93 % 0.51 mm
08:16 8.6 °C 7.6 °C 1020.2 hPa NW 3.7 km/h 3.7 km/h 93 % 0.25 mm
08:21 8.6 °C 7.5 °C 1020.2 hPa WNW 3.2 km/h 3.2 km/h 93 % 0.25 mm
08:26 8.5 °C 7.4 °C 1020.2 hPa NNW 1.9 km/h 1.9 km/h 93 % 0.51 mm
08:31 8.4 °C 7.4 °C 1020.2 hPa NW 5.6 km/h 5.6 km/h 93 % 0.76 mm
08:36 8.4 °C 7.4 °C 1020.2 hPa NW 3.7 km/h 3.7 km/h 93 % 0.76 mm
08:41 8.5 °C 7.4 °C 1020.2 hPa NW 3.7 km/h 3.7 km/h 93 % 1.02 mm
08:46 8.5 °C 7.4 °C 1020.5 hPa NW 7.4 km/h 7.4 km/h 93 % 1.02 mm
08:51 8.4 °C 7.4 °C 1020.5 hPa WNW 1.9 km/h 1.9 km/h 93 % 1.27 mm
08:56 8.4 °C 7.2 °C 1020.5 hPa NNW 3.7 km/h 3.7 km/h 92 % 1.27 mm
09:01 8.3 °C 7.1 °C 1020.5 hPa NW 3.7 km/h 3.7 km/h 92 % 1.52 mm
09:06 8.3 °C 7.1 °C 1020.5 hPa ENE 1.9 km/h   92 % 1.78 mm
09:11 8.2 °C 7 °C 1020.5 hPa NNE 1.9 km/h 1.9 km/h 92 % 1.52 mm
09:16 8.3 °C 7.1 °C 1020.5 hPa West 3.7 km/h 3.7 km/h 92 % 1.52 mm
09:21 8.3 °C 7.1 °C 1020.5 hPa NW 5.6 km/h 5.6 km/h 92 % 1.52 mm
09:26 8.4 °C 7.2 °C 1020.5 hPa NW 1.9 km/h   92 % 1.27 mm
09:31 8.4 °C 7.2 °C 1020.5 hPa NNE 1.9 km/h   92 % 1.02 mm
09:36 8.4 °C 7.1 °C 1020.5 hPa WNW 3.7 km/h 3.7 km/h 91 % 1.02 mm
09:41 8.6 °C 7.4 °C 1020.9 hPa WNW 1.9 km/h 1.9 km/h 92 % 0.76 mm
09:46 9 °C 7.6 °C 1020.9 hPa WNW 1.9 km/h 1.9 km/h 91 % 0.76 mm
09:51 9.5 °C 8.1 °C 1020.9 hPa SE 1.9 km/h 1.9 km/h 91 % 0.51 mm
09:56 9.7 °C 7.8 °C 1020.9 hPa SSE 5.6 km/h 5.6 km/h 88 % 0.51 mm
10:01 9.7 °C 7.6 °C 1020.9 hPa Calm     87 % 0.25 mm
10:06 9.6 °C 7.2 °C 1021.2 hPa WNW 3.7 km/h 3.7 km/h 85 % 0 mm
10:11 9.6 °C 7.2 °C 1021.2 hPa NW 3.7 km/h 3.7 km/h 85 % 0 mm
10:16 9.9 °C 7.7 °C 1021.2 hPa NNE 1.9 km/h   86 % 0 mm
10:21 10.3 °C 7.9 °C 1021.2 hPa NNE 1.9 km/h 1.9 km/h 85 % 0 mm
10:26 10.6 °C 7.6 °C 1021.2 hPa East 3.7 km/h 3.7 km/h 82 % 0 mm
10:31 10.8 °C 7.5 °C 1021.2 hPa WNW 3.7 km/h 3.7 km/h 80 % 0 mm
10:35 11.1 °C 7.6 °C 1021.2 hPa NW 4.8 km/h 4.8 km/h 79 % 0 mm
10:40 11.2 °C 7.5 °C 1021.2 hPa SE 1.9 km/h   78 % 0 mm
10:45 11.7 °C 7.8 °C 1021.2 hPa Calm     77 % 0 mm
10:51 11.8 °C 7.1 °C 1021.2 hPa NW 3.7 km/h 3.7 km/h 73 % 0 mm
10:56 12 °C 6.9 °C 1020.9 hPa SE 1.9 km/h 1.9 km/h 71 % 0 mm
11:01 12.2 °C 7.1 °C 1021.2 hPa WNW 1.9 km/h   71 % 0 mm
11:06 12.2 °C 6.4 °C 1021.2 hPa NW 5.6 km/h 5.6 km/h 68 % 0 mm
11:11 12.2 °C 6.7 °C 1021.2 hPa NNW 3.7 km/h 3.7 km/h 69 % 0 mm
11:16 12.2 °C 6.5 °C 1020.9 hPa NW 1.9 km/h 1.9 km/h 68 % 0 mm
11:21 12.4 °C 6.9 °C 1020.9 hPa WNW 5.6 km/h 5.6 km/h 69 % 0 mm
11:26 12.3 °C 6.6 °C 1020.9 hPa NW 8 km/h 8 km/h 68 % 0 mm
11:31 12.4 °C 7.1 °C 1020.9 hPa NW 3.7 km/h 3.7 km/h 70 % 0 mm
11:36 12.5 °C 6.6 °C 1020.9 hPa NW 5.6 km/h 5.6 km/h 67 % 0 mm
11:41 12.6 °C 6.7 °C 1020.9 hPa NW 7.4 km/h 7.4 km/h 67 % 0 mm
11:46 12.8 °C 5.9 °C 1020.9 hPa NW 5.6 km/h 5.6 km/h 63 % 0 mm
11:51 12.8 °C 5.7 °C 1020.5 hPa NW 6.4 km/h 6.4 km/h 62 % 0 mm
11:56 12.6 °C 4.8 °C 1020.5 hPa NW 5.6 km/h 5.8 km/h 59 % 0 mm
12:01 12.6 °C 5.4 °C 1020.5 hPa NW 5.6 km/h 5.6 km/h 62 % 0 mm
12:06 12.7 °C 4.7 °C 1020.5 hPa WNW 7.4 km/h 7.4 km/h 58 % 0 mm
12:11 12.9 °C 4.9 °C 1020.5 hPa NW 5.6 km/h 5.6 km/h 58 % 0 mm
12:16 12.9 °C 4.9 °C 1020.5 hPa NNW 3.7 km/h 3.7 km/h 58 % 0 mm
12:21 13 °C 5.2 °C 1020.2 hPa NW 5.6 km/h 5.6 km/h 59 % 0 mm
12:26 13.3 °C 5.5 °C 1020.5 hPa NW 3.7 km/h 3.7 km/h 59 % 0 mm
12:31 13.3 °C 5 °C 1020.5 hPa NW 5.6 km/h 5.6 km/h 57 % 0 mm
12:36 13.6 °C 5.4 °C 1020.2 hPa NW 7.4 km/h 7.4 km/h 58 % 0 mm
12:41 13.6 °C 5.7 °C 1020.2 hPa NNW 5.6 km/h 5.6 km/h 59 % 0 mm
12:46 13.6 °C 6 °C 1020.2 hPa NW 7.4 km/h 7.4 km/h 60 % 0 mm
12:51 13.7 °C 5.8 °C 1020.2 hPa NW 7.4 km/h 7.4 km/h 59 % 0 mm
12:56 13.9 °C 5.5 °C 1020.2 hPa WNW 5.6 km/h 5.6 km/h 57 % 0 mm
13:01 13.8 °C 5.7 °C 1020.2 hPa NW 5.6 km/h 5.6 km/h 58 % 0 mm
13:06 13.3 °C 5.2 °C 1020.2 hPa NW 5.6 km/h 5.6 km/h 58 % 0 mm
13:11 13.4 °C 5.8 °C 1020.2 hPa North 6.4 km/h 6.4 km/h 60 % 0 mm
13:16 13.6 °C 5 °C 1019.9 hPa NW 7.4 km/h 7.4 km/h 56 % 0 mm
13:21 13.3 °C 4.7 °C 1019.9 hPa NW 6.4 km/h 6.4 km/h 56 % 0 mm
13:26 13 °C 4.7 °C 1019.9 hPa NNW 3.2 km/h 3.2 km/h 57 % 0 mm
13:31 13.3 °C 5.2 °C 1019.9 hPa WNW 5.6 km/h 5.6 km/h 58 % 0 mm
13:36 13.6 °C 5.2 °C 1019.9 hPa WNW 5.6 km/h 5.6 km/h 57 % 0 mm
13:41 13.6 °C 5.2 °C 1019.9 hPa WNW 5.6 km/h 5.6 km/h 57 % 0 mm
13:46 13.4 °C 5.1 °C 1019.9 hPa NNW 3.7 km/h 3.7 km/h 57 % 0 mm
13:51 13.4 °C 4.8 °C 1019.9 hPa NNW 3.7 km/h 3.7 km/h 56 % 0 mm
13:56 13.2 °C 4.1 °C 1019.9 hPa North 5.6 km/h 5.6 km/h 54 % 0 mm
14:01 13.5 °C 4.6 °C 1019.5 hPa NNW 5.6 km/h 5.6 km/h 55 % 0 mm
14:06 13.8 °C 4.1 °C 1019.5 hPa WNW 3.7 km/h 3.7 km/h 52 % 0 mm
14:11 14 °C 3.4 °C 1019.9 hPa NW 9.3 km/h 9.3 km/h 49 % 0 mm
14:16 14.2 °C 3.6 °C 1019.5 hPa NW 3.7 km/h 3.7 km/h 49 % 0 mm
14:21 14.2 °C 3.1 °C 1019.5 hPa NW 7.4 km/h 7.4 km/h 47 % 0 mm
14:50 14.5 °C 4.5 °C 1019.5 hPa NW 5.6 km/h 5.6 km/h 51 % 0 mm
14:55 14.6 °C 4.8 °C 1019.5 hPa NNW 7.4 km/h 7.4 km/h 52 % 0 mm
15:00 14.5 °C 4.5 °C 1019.9 hPa WNW 9.3 km/h 9.3 km/h 51 % 0 mm
15:05 14.3 °C 4.6 °C 1019.5 hPa NW 5.6 km/h 5.6 km/h 52 % 0 mm
15:10 14.3 °C 4.1 °C 1019.9 hPa WNW 7.4 km/h 7.4 km/h 50 % 0 mm
15:15 14.1 °C 3.6 °C 1019.9 hPa WNW 7.4 km/h 7.4 km/h 49 % 0 mm
15:20 14 °C 3.7 °C 1019.9 hPa NW 5.6 km/h 5.6 km/h 50 % 0 mm
15:25 14 °C 3.7 °C 1019.9 hPa NW 3.7 km/h 3.7 km/h 50 % 0 mm
15:30 13.9 °C 3.3 °C 1019.9 hPa NW 7.4 km/h 7.4 km/h 49 % 0 mm
15:35 13.9 °C 3.6 °C 1019.9 hPa North 5.6 km/h 5.6 km/h 50 % 0 mm
15:40 13.9 °C 3.6 °C 1019.9 hPa NW 5.6 km/h 5.6 km/h 50 % 0 mm
15:45 13.8 °C 3.5 °C 1019.9 hPa NW 9.3 km/h 9.3 km/h 50 % 0 mm
15:50 13.7 °C 2.8 °C 1019.9 hPa NW 5.6 km/h 5.6 km/h 48 % 0 mm
15:55 13.6 °C 3.9 °C 1019.9 hPa WNW 3.7 km/h 3.7 km/h 52 % 0 mm
16:00 13.6 °C 3.9 °C 1019.9 hPa WNW 3.7 km/h 3.7 km/h 52 % 0 mm
16:05 13.6 °C 3.9 °C 1020.2 hPa NW 7.4 km/h 7.4 km/h 52 % 0 mm
16:10 13.6 °C 3.9 °C 1020.2 hPa NW 5.6 km/h 5.6 km/h 52 % 0 mm
16:15 13.5 °C 3.8 °C 1020.2 hPa WNW 5.6 km/h 5.6 km/h 52 % 0 mm
16:20 13.4 °C 3.7 °C 1020.2 hPa NW 4.8 km/h 4.8 km/h 52 % 0 mm
16:25 13.3 °C 3.9 °C 1020.2 hPa WNW 7.4 km/h 7.4 km/h 53 % 0 mm
16:30 13.2 °C 3.8 °C 1020.2 hPa North 5.6 km/h 5.6 km/h 53 % 0 mm
16:35 13.1 °C 3.7 °C 1020.2 hPa NW 4.8 km/h 4.8 km/h 53 % 0 mm
16:40 13 °C 3.9 °C 1020.2 hPa Calm     54 % 0 mm
16:45 12.9 °C 3.6 °C 1020.2 hPa NW 5.6 km/h 5.6 km/h 53 % 0 mm
16:50 12.8 °C 3.4 °C 1020.2 hPa NW 3.7 km/h 3.7 km/h 53 % 0 mm
16:55 12.6 °C 3.8 °C 1020.2 hPa Calm     55 % 0 mm
17:00 12.4 °C 3.6 °C 1020.2 hPa NW 1.9 km/h 1.9 km/h 55 % 0 mm
17:05 12.2 °C 3.9 °C 1020.5 hPa NW 1.9 km/h 1.9 km/h 57 % 0 mm
17:10 12 °C 3.7 °C 1020.5 hPa Calm     57 % 0 mm
17:15 11.8 °C 4 °C 1020.5 hPa Calm     59 % 0 mm
17:20 11.5 °C 4 °C 1020.5 hPa Calm     60 % 0 mm
17:25 11.3 °C 3.8 °C 1020.5 hPa Calm     60 % 0 mm
17:30 11.1 °C 4.1 °C 1020.5 hPa Calm     62 % 0 mm
17:35 10.7 °C 3.9 °C 1020.9 hPa Calm     63 % 0 mm
17:40 10.4 °C 3.9 °C 1020.9 hPa Calm     64 % 0 mm
17:45 10.1 °C 4.2 °C 1020.9 hPa Calm     67 % 0 mm
17:50 9.7 °C 3.9 °C 1020.9 hPa Calm     67 % 0 mm
17:55 9.5 °C 4.1 °C 1020.9 hPa Calm     69 % 0 mm
18:00 9.3 °C 4.1 °C 1020.9 hPa Calm     70 % 0 mm
18:05 9.1 °C 4.1 °C 1020.9 hPa Calm     71 % 0 mm
18:10 8.9 °C 4.3 °C 1021.2 hPa Calm     73 % 0 mm
18:15 8.7 °C 3.9 °C 1021.2 hPa Calm     72 % 0 mm
18:20 8.5 °C 4.1 °C 1021.2 hPa Calm     74 % 0 mm
18:25 8.3 °C 4.3 °C 1021.2 hPa Calm     76 % 0 mm
18:30 8.1 °C 4.1 °C 1021.2 hPa Calm     76 % 0 mm
18:35 7.9 °C 4.3 °C 1021.2 hPa Calm     78 % 0 mm
18:40 7.8 °C 4.2 °C 1021.2 hPa Calm     78 % 0 mm
18:45 7.8 °C 4.6 °C 1021.2 hPa Calm     80 % 0 mm
18:50 7.6 °C 4.4 °C 1021.2 hPa Calm     80 % 0 mm
18:55 7.4 °C 4.4 °C 1021.6 hPa Calm     81 % 0 mm
19:00 7.3 °C 4.2 °C 1021.6 hPa Calm     81 % 0 mm
19:05 7.1 °C 4.2 °C 1021.6 hPa Calm     82 % 0 mm
19:11 7.2 °C 4.3 °C 1021.6 hPa Calm     82 % 0 mm
19:16 7.2 °C 4.1 °C 1021.6 hPa Calm     81 % 0 mm
19:21 7 °C 4.1 °C 1021.6 hPa Calm     82 % 0 mm
19:26 6.9 °C 4.2 °C 1021.6 hPa Calm     83 % 0 mm
19:34 6.6 °C 4.1 °C 1021.6 hPa Calm     84 % 0 mm
19:40 6.6 °C 4.1 °C 1021.6 hPa Calm     84 % 0 mm
19:45 6.6 °C 4.1 °C 1021.6 hPa Calm     84 % 0 mm
19:50 6.7 °C 4.1 °C 1021.6 hPa Calm     83 % 0 mm
19:55 7.2 °C 4.1 °C 1021.6 hPa Calm     81 % 0 mm
20:00 7.2 °C 4.1 °C 1021.6 hPa Calm     81 % 0 mm
20:05 6.7 °C 3.9 °C 1021.9 hPa Calm     82 % 0 mm
20:10 6.3 °C 3.6 °C 1021.9 hPa Calm     83 % 0 mm
20:15 5.9 °C 3.6 °C 1021.9 hPa Calm     85 % 0 mm
20:20 5.7 °C 3.5 °C 1021.9 hPa Calm     86 % 0 mm
20:25 5.7 °C 3.6 °C 1021.9 hPa Calm     86 % 0 mm
20:30 5.9 °C 3.6 °C 1021.9 hPa Calm     85 % 0 mm
20:35 6.1 °C 3.6 °C 1021.9 hPa Calm     84 % 0 mm
20:40 6.2 °C 3.7 °C 1021.9 hPa Calm     84 % 0 mm
20:45 6.4 °C 3.7 °C 1022.2 hPa Calm     83 % 0 mm
20:50 6.5 °C 3.7 °C 1022.2 hPa Calm     82 % 0 mm
20:55 6.4 °C 3.6 °C 1022.2 hPa Calm     82 % 0 mm
21:00 6.4 °C 3.6 °C 1022.2 hPa Calm     82 % 0 mm
21:05 6.3 °C 3.4 °C 1022.2 hPa Calm     82 % 0 mm
21:10 6.2 °C 3.3 °C 1022.2 hPa Calm     82 % 0 mm
21:15 6.2 °C 3.5 °C 1022.6 hPa Calm     83 % 0 mm
21:20 6.3 °C 3.4 °C 1022.6 hPa Calm     82 % 0 mm
21:25 6.4 °C 3.4 °C 1022.6 hPa Calm     81 % 0 mm
21:30 6.6 °C 3.3 °C 1022.6 hPa Calm     80 % 0 mm
21:35 6.6 °C 3.3 °C 1022.6 hPa Calm     80 % 0 mm
21:40 6.6 °C 3.3 °C 1022.6 hPa Calm     80 % 0 mm
21:45 6.6 °C 3.3 °C 1022.6 hPa Calm     80 % 0 mm
21:50 6.5 °C 3.3 °C 1022.6 hPa Calm     80 % 0 mm
21:55 6.3 °C 3.3 °C 1022.9 hPa Calm     81 % 0 mm
22:00 5.9 °C 3.1 °C 1022.9 hPa Calm     82 % 0 mm
22:05 5.4 °C 2.8 °C 1022.9 hPa Calm     83 % 0 mm
22:10 5.1 °C 2.7 °C 1022.9 hPa Calm     85 % 0 mm
22:15 4.9 °C 2.7 °C 1023.2 hPa Calm     86 % 0 mm
22:20 4.7 °C 2.5 °C 1023.2 hPa Calm     86 % 0 mm
22:25 4.4 °C 2.4 °C 1023.2 hPa Calm     87 % 0 mm
22:30 4.2 °C 2.3 °C 1023.2 hPa Calm     88 % 0 mm
22:35 4 °C 2.2 °C 1023.6 hPa Calm     88 % 0 mm
22:40 3.9 °C 2.3 °C 1023.6 hPa Calm     89 % 0 mm
22:45 4 °C 2.3 °C 1023.6 hPa Calm     89 % 0 mm
22:50 4.1 °C 2.4 °C 1023.6 hPa Calm     89 % 0 mm
22:55 4.2 °C 2.7 °C 1023.9 hPa Calm     90 % 0 mm
23:00 4.2 °C 2.6 °C 1023.6 hPa Calm     89 % 0 mm
23:05 4.2 °C 2.5 °C 1023.9 hPa Calm     89 % 0 mm
23:10 4.2 °C 2.5 °C 1023.9 hPa East 1.6 km/h 1.6 km/h 89 % 0 mm
23:15 3.9 °C 2.1 °C 1023.9 hPa East 1.9 km/h   88 % 0 mm
23:20 3.8 °C 2.1 °C 1023.9 hPa Calm     89 % 0 mm
23:25 3.7 °C 2.1 °C 1023.9 hPa East 1.9 km/h   89 % 0 mm
23:30 3.6 °C 1.9 °C 1023.9 hPa Calm     89 % 0 mm
23:35 3.5 °C 1.8 °C 1023.9 hPa Calm     89 % 0 mm
23:40 3.3 °C 1.8 °C 1023.9 hPa East 1.9 km/h   90 % 0 mm
23:45 3.3 °C 1.8 °C 1023.9 hPa Calm     90 % 0 mm
23:50 3.2 °C 1.7 °C 1023.9 hPa Calm     90 % 0 mm
23:55 3.1 °C 1.6 °C 1023.9 hPa Calm     90 % 0 mm
Park Place, Exeter, Tulare County, California, USA
Compliments of Weather Underground - 2.75 mb